createdAt,value
2018-03-11T00:01:18.928Z,92.50
2018-03-11T00:03:48.194Z,92.30
2018-03-11T00:06:17.526Z,92.40
2018-03-11T00:08:46.743Z,92.30
2018-03-11T00:11:16.052Z,92.30
2018-03-11T00:13:45.355Z,92.30
2018-03-11T00:16:15.411Z,92.20
2018-03-11T00:18:45.492Z,92.30
2018-03-11T00:21:14.786Z,92.20
2018-03-11T00:23:44.098Z,92.20
2018-03-11T00:26:13.486Z,92.20
2018-03-11T00:28:42.923Z,92.10
2018-03-11T00:31:12.270Z,92.00
2018-03-11T00:33:42.386Z,92.10
2018-03-11T00:36:11.830Z,92.10
2018-03-11T00:38:41.791Z,92.00
2018-03-11T00:41:11.182Z,92.00
2018-03-11T00:43:41.294Z,92.00
2018-03-11T00:46:11.430Z,92.20
2018-03-11T00:48:40.789Z,92.20
2018-03-11T00:51:10.128Z,92.10
2018-03-11T00:53:39.408Z,92.10
2018-03-11T00:56:08.809Z,92.10
2018-03-11T00:58:38.130Z,92.20
2018-03-11T01:01:07.397Z,92.10
2018-03-11T01:03:37.653Z,92.30
2018-03-11T01:06:06.931Z,92.30
2018-03-11T01:08:36.260Z,92.40
2018-03-11T01:11:06.010Z,92.30
2018-03-11T01:13:35.275Z,92.10
2018-03-11T01:16:04.582Z,92.20
2018-03-11T01:18:33.936Z,92.70
2018-03-11T01:21:03.273Z,92.80
2018-03-11T01:23:32.534Z,92.80
2018-03-11T01:26:01.815Z,92.90
2018-03-11T01:28:31.113Z,93.00
2018-03-11T01:31:00.411Z,92.90
2018-03-11T01:33:29.620Z,93.10
2018-03-11T01:35:59.603Z,93.30
2018-03-11T01:38:28.858Z,93.30
2018-03-11T01:40:58.169Z,93.20
2018-03-11T01:43:27.499Z,93.20
2018-03-11T01:45:56.749Z,93.00
2018-03-11T01:48:26.796Z,92.90
2018-03-11T01:50:56.859Z,93.10
2018-03-11T01:53:26.244Z,93.10
2018-03-11T01:55:55.545Z,93.00
2018-03-11T01:58:25.565Z,93.00
2018-03-11T02:00:55.605Z,92.90
2018-03-11T02:03:25.632Z,92.90
2018-03-11T02:05:55.709Z,92.90
2018-03-11T02:08:25.017Z,92.90
2018-03-11T02:10:54.320Z,93.00
2018-03-11T02:13:23.619Z,93.10
2018-03-11T02:15:53.627Z,93.30
2018-03-11T02:18:22.997Z,93.30
2018-03-11T02:20:52.248Z,93.50
2018-03-11T02:23:21.637Z,93.80
2018-03-11T02:25:50.939Z,94.00
2018-03-11T02:28:20.190Z,94.00
2018-03-11T02:30:50.327Z,94.60
2018-03-11T02:33:19.609Z,94.60
2018-03-11T02:35:49.675Z,95.00
2018-03-11T02:38:18.969Z,95.30
2018-03-11T02:40:48.292Z,95.00
2018-03-11T02:43:17.621Z,95.10
2018-03-11T02:45:46.853Z,95.10
2018-03-11T02:48:19.167Z,95.20
2018-03-11T02:50:49.262Z,96.00
2018-03-11T02:53:18.637Z,95.80
2018-03-11T02:55:48.666Z,96.10
2018-03-11T02:58:18.005Z,96.00
2018-03-11T03:00:47.386Z,96.20
2018-03-11T03:03:17.588Z,96.10
2018-03-11T03:05:46.828Z,96.10
2018-03-11T03:08:16.853Z,96.30
2018-03-11T03:10:46.939Z,96.50
2018-03-11T03:13:17.036Z,96.50
2018-03-11T03:15:46.338Z,96.50
2018-03-11T03:18:15.646Z,96.40
2018-03-11T03:20:45.143Z,96.50
2018-03-11T03:23:15.199Z,96.90
2018-03-11T03:25:44.532Z,96.90
2018-03-11T03:28:13.870Z,97.10
2018-03-11T03:30:43.332Z,97.30
2018-03-11T03:33:27.416Z,97.30
2018-03-11T03:35:56.692Z,97.20
2018-03-11T03:38:25.972Z,97.30
2018-03-11T03:40:55.206Z,97.20
2018-03-11T03:43:24.462Z,97.30
2018-03-11T03:45:53.896Z,97.50
2018-03-11T03:48:23.164Z,97.60
2018-03-11T03:50:52.452Z,97.70
2018-03-11T03:53:21.705Z,97.70
2018-03-11T03:55:51.024Z,97.80
2018-03-11T03:58:20.338Z,97.70
2018-03-11T04:00:51.437Z,97.80
2018-03-11T04:03:20.787Z,97.80
2018-03-11T04:05:50.120Z,97.90
2018-03-11T04:08:20.228Z,97.90
2018-03-11T04:10:50.430Z,97.80
2018-03-11T04:13:20.101Z,97.90
2018-03-11T04:15:49.470Z,98.00
2018-03-11T04:18:18.822Z,97.80
2018-03-11T04:20:48.223Z,97.90
2018-03-11T04:23:17.593Z,98.00
2018-03-11T04:25:46.882Z,97.90
2018-03-11T04:28:16.190Z,97.90
2018-03-11T04:30:46.259Z,97.90
2018-03-11T04:33:16.307Z,97.90
2018-03-11T04:35:45.603Z,97.90
2018-03-11T04:38:14.875Z,97.80
2018-03-11T04:40:44.138Z,97.90
2018-03-11T04:43:13.480Z,97.90
2018-03-11T04:45:42.805Z,97.90
2018-03-11T04:48:12.879Z,97.80
2018-03-11T04:50:42.194Z,97.80
2018-03-11T04:53:12.251Z,97.90
2018-03-11T04:55:41.528Z,97.80
2018-03-11T04:58:10.834Z,97.80
2018-03-11T05:00:40.117Z,97.90
2018-03-11T05:03:09.404Z,97.90
2018-03-11T05:05:38.722Z,97.90
2018-03-11T05:08:07.976Z,97.90
2018-03-11T05:10:37.274Z,98.30
2018-03-11T05:13:06.573Z,98.40
2018-03-11T05:15:35.847Z,98.60
2018-03-11T05:18:05.061Z,98.70
2018-03-11T05:20:34.328Z,98.80
2018-03-11T05:23:03.592Z,98.80
2018-03-11T05:25:32.866Z,98.80
2018-03-11T05:28:02.150Z,98.90
2018-03-11T05:30:31.452Z,98.80
2018-03-11T05:33:01.516Z,98.60
2018-03-11T05:35:30.816Z,98.60
2018-03-11T05:38:00.098Z,98.40
2018-03-11T05:40:30.187Z,98.40
2018-03-11T05:42:59.438Z,98.40
2018-03-11T05:45:29.519Z,98.50
2018-03-11T05:47:58.797Z,98.30
2018-03-11T05:50:28.281Z,98.30
2018-03-11T05:52:57.522Z,98.20
2018-03-11T05:55:26.912Z,98.20
2018-03-11T05:57:56.235Z,98.20
2018-03-11T06:00:26.373Z,98.20
2018-03-11T06:02:55.715Z,98.20
2018-03-11T06:05:24.983Z,98.40
2018-03-11T06:07:55.295Z,98.80
2018-03-11T06:10:24.681Z,98.50
2018-03-11T06:12:53.960Z,98.40
2018-03-11T06:15:23.291Z,98.50
2018-03-11T06:17:52.717Z,98.50
2018-03-11T06:20:22.148Z,98.50
2018-03-11T06:22:51.485Z,98.60
2018-03-11T06:25:20.785Z,99.00
2018-03-11T06:27:50.940Z,98.40
2018-03-11T06:30:20.266Z,98.40
2018-03-11T06:32:50.357Z,97.70
2018-03-11T06:35:20.654Z,97.70
2018-03-11T06:37:49.925Z,97.30
2018-03-11T06:40:20.113Z,97.00
2018-03-11T06:42:49.384Z,97.00
2018-03-11T06:45:19.406Z,95.90
2018-03-11T06:47:49.469Z,95.30
2018-03-11T06:50:18.752Z,95.30
2018-03-11T06:52:48.052Z,95.30
2018-03-11T06:55:17.340Z,94.30
2018-03-11T06:57:46.636Z,94.00
2018-03-11T07:00:15.764Z,93.80
2018-03-11T07:02:44.735Z,93.30
2018-03-11T07:05:13.729Z,92.80
2018-03-11T07:07:43.145Z,92.70
2018-03-11T07:10:12.550Z,92.30
2018-03-11T07:12:41.794Z,92.40
2018-03-11T07:15:11.742Z,91.90
2018-03-11T07:17:40.954Z,91.90
2018-03-11T07:20:10.372Z,92.10
2018-03-11T07:22:39.669Z,92.10
2018-03-11T07:25:08.898Z,92.00
2018-03-11T07:27:38.155Z,91.90
2018-03-11T07:30:07.456Z,91.70
2018-03-11T07:32:38.241Z,91.30
2018-03-11T07:35:07.592Z,91.30
2018-03-11T07:37:36.962Z,90.80
2018-03-11T07:40:06.183Z,90.80
2018-03-11T07:42:35.386Z,90.70
2018-03-11T07:45:04.781Z,89.60
2018-03-11T07:47:33.981Z,89.40
2018-03-11T07:50:03.197Z,88.70
2018-03-11T07:52:32.490Z,88.30
2018-03-11T07:55:01.887Z,87.50
2018-03-11T07:57:31.122Z,87.10
2018-03-11T08:00:01.121Z,86.50
2018-03-11T08:02:30.413Z,86.50
2018-03-11T08:04:59.807Z,85.70
2018-03-11T08:07:29.041Z,85.90
2018-03-11T08:09:59.014Z,84.80
2018-03-11T08:12:28.305Z,84.80
2018-03-11T08:14:57.513Z,84.80
2018-03-11T08:17:27.021Z,84.40
2018-03-11T08:19:56.424Z,84.10
2018-03-11T08:22:25.927Z,83.10
2018-03-11T08:24:55.188Z,82.80
2018-03-11T08:27:24.750Z,82.30
2018-03-11T08:29:53.957Z,81.40
2018-03-11T08:32:23.228Z,79.10
2018-03-11T08:34:52.496Z,76.80
2018-03-11T08:37:21.858Z,76.00
2018-03-11T08:39:51.133Z,76.30
2018-03-11T08:42:20.346Z,77.00
2018-03-11T08:44:49.725Z,76.50
2018-03-11T08:47:19.038Z,73.90
2018-03-11T08:49:49.156Z,73.50
2018-03-11T08:52:18.451Z,73.60
2018-03-11T08:54:47.639Z,73.30
2018-03-11T08:57:17.866Z,72.60
2018-03-11T08:59:47.027Z,72.40
2018-03-11T09:02:17.001Z,68.90
2018-03-11T09:04:46.009Z,68.80
2018-03-11T09:07:15.362Z,67.50
2018-03-11T09:09:44.620Z,65.90
2018-03-11T09:12:14.734Z,65.80
2018-03-11T09:14:44.093Z,65.70
2018-03-11T09:17:13.362Z,66.00
2018-03-11T09:19:42.587Z,64.40
2018-03-11T09:22:12.627Z,66.10
2018-03-11T09:24:42.689Z,66.50
2018-03-11T09:27:12.115Z,66.40
2018-03-11T09:29:41.567Z,66.00
2018-03-11T09:32:11.030Z,65.90
2018-03-11T09:34:40.236Z,64.60
2018-03-11T09:37:09.434Z,64.50
2018-03-11T09:39:38.639Z,65.20
2018-03-11T09:42:07.997Z,64.40
2018-03-11T09:44:37.256Z,64.80
2018-03-11T09:47:06.580Z,62.40
2018-03-11T09:49:35.919Z,62.40
2018-03-11T09:52:05.180Z,62.60
2018-03-11T09:54:35.291Z,59.70
2018-03-11T09:57:04.655Z,59.60
2018-03-11T09:59:33.878Z,58.70
2018-03-11T10:02:06.017Z,57.60
2018-03-11T10:04:35.188Z,57.50
2018-03-11T10:07:04.454Z,57.40
2018-03-11T10:09:34.689Z,56.90
2018-03-11T10:12:04.460Z,55.60
2018-03-11T10:14:33.641Z,55.60
2018-03-11T10:17:02.844Z,55.50
2018-03-11T10:19:32.087Z,54.30
2018-03-11T10:22:01.374Z,52.80
2018-03-11T10:24:30.841Z,52.50
2018-03-11T10:26:59.804Z,52.60
2018-03-11T10:29:29.041Z,50.40
2018-03-11T10:31:58.366Z,48.80
2018-03-11T10:34:27.734Z,49.20
2018-03-11T10:36:57.141Z,48.90
2018-03-11T10:39:26.330Z,48.20
2018-03-11T10:41:55.535Z,48.70
2018-03-11T10:44:24.968Z,48.20
2018-03-11T10:46:54.142Z,48.10
2018-03-11T10:49:23.433Z,48.00
2018-03-11T10:51:52.674Z,47.80
2018-03-11T10:54:21.940Z,46.30
2018-03-11T10:56:51.166Z,47.90
2018-03-11T10:59:21.244Z,47.20
2018-03-11T11:01:55.974Z,47.20
2018-03-11T11:04:41.381Z,47.10
2018-03-11T11:07:10.377Z,47.60
2018-03-11T11:09:39.373Z,47.80
2018-03-11T11:12:08.358Z,47.10
2018-03-11T11:14:37.353Z,48.20
2018-03-11T11:17:06.312Z,47.30
2018-03-11T11:19:35.301Z,46.50
2018-03-11T11:22:04.256Z,46.80
2018-03-11T11:24:34.240Z,45.10
2018-03-11T11:27:03.250Z,45.10
2018-03-11T11:29:32.612Z,45.20
2018-03-11T11:32:05.496Z,45.00
2018-03-11T11:34:34.750Z,46.00
2018-03-11T11:37:04.914Z,44.90
2018-03-11T11:39:33.955Z,45.00
2018-03-11T11:42:03.931Z,44.60
2018-03-11T11:44:33.123Z,44.60
2018-03-11T11:47:02.319Z,44.60
2018-03-11T11:49:31.356Z,43.50
2018-03-11T11:52:00.715Z,43.20
2018-03-11T11:54:29.881Z,43.40
2018-03-11T11:56:59.035Z,43.20
2018-03-11T11:59:29.002Z,43.10
2018-03-11T12:01:58.209Z,43.20
2018-03-11T12:04:27.374Z,42.30
2018-03-11T12:06:57.330Z,42.90
2018-03-11T12:09:26.374Z,42.80
2018-03-11T12:11:55.515Z,43.00
2018-03-11T12:14:24.826Z,42.40
2018-03-11T12:16:54.016Z,43.00
2018-03-11T12:19:23.262Z,43.30
2018-03-11T12:21:52.262Z,42.70
2018-03-11T12:24:22.535Z,41.30
2018-03-11T12:26:51.834Z,41.20
2018-03-11T12:29:21.003Z,41.20
2018-03-11T12:31:50.236Z,41.50
2018-03-11T12:34:19.442Z,41.30
2018-03-11T12:36:48.931Z,41.80
2018-03-11T12:39:18.189Z,41.20
2018-03-11T12:41:48.138Z,41.40
2018-03-11T12:44:17.444Z,41.30
2018-03-11T12:46:46.691Z,40.90
2018-03-11T12:49:15.878Z,41.00
2018-03-11T12:51:45.773Z,41.00
2018-03-11T12:54:14.952Z,41.00
2018-03-11T12:56:44.190Z,40.40
2018-03-11T12:59:13.610Z,40.70
2018-03-11T13:01:42.778Z,40.30
2018-03-11T13:04:11.951Z,40.50
2018-03-11T13:06:41.252Z,40.20
2018-03-11T13:09:10.462Z,40.50
2018-03-11T13:11:39.748Z,40.80
2018-03-11T13:14:09.044Z,40.30
2018-03-11T13:16:38.249Z,40.30
2018-03-11T13:19:07.568Z,39.90
2018-03-11T13:21:37.666Z,39.20
2018-03-11T13:24:07.150Z,39.20
2018-03-11T13:26:36.367Z,40.10
2018-03-11T13:29:05.512Z,40.10
2018-03-11T13:31:34.712Z,40.20
2018-03-11T13:34:30.378Z,40.00
2018-03-11T13:36:59.566Z,40.00
2018-03-11T13:39:44.702Z,44.30
2018-03-11T13:42:14.051Z,42.50
2018-03-11T13:44:43.347Z,42.30
2018-03-11T13:47:12.541Z,42.60
2018-03-11T13:49:42.130Z,39.80
2018-03-11T13:52:23.335Z,40.10
2018-03-11T13:54:52.473Z,40.10
2018-03-11T14:00:34.420Z,36.50
2018-03-11T14:03:03.586Z,37.00
2018-03-11T14:05:32.886Z,37.00
2018-03-11T14:08:02.233Z,37.60
2018-03-11T14:10:31.430Z,36.80
2018-03-11T14:13:00.653Z,36.50
2018-03-11T14:15:29.930Z,38.00
2018-03-11T14:17:59.224Z,37.10
2018-03-11T14:20:28.496Z,35.40
2018-03-11T14:22:57.760Z,37.40
2018-03-11T14:25:27.153Z,36.70
2018-03-11T14:27:56.456Z,35.80
2018-03-11T14:30:25.639Z,35.20
2018-03-11T14:32:54.853Z,36.00
2018-03-11T14:35:24.860Z,35.60
2018-03-11T14:37:54.118Z,35.60
2018-03-11T14:40:24.144Z,38.30
2018-03-11T14:42:54.256Z,38.60
2018-03-11T14:45:24.291Z,38.40
2018-03-11T14:47:53.520Z,38.40
2018-03-11T14:50:23.578Z,39.00
2018-03-11T14:52:52.868Z,38.90
2018-03-11T14:55:22.135Z,38.80
2018-03-11T14:57:52.268Z,39.20
2018-03-11T15:00:21.507Z,39.10
2018-03-11T15:02:50.776Z,39.30
2018-03-11T15:05:20.211Z,39.20
2018-03-11T15:07:50.254Z,39.70
2018-03-11T15:10:19.537Z,39.60
2018-03-11T15:12:48.765Z,39.90
2018-03-11T15:15:18.064Z,41.20
2018-03-11T15:17:47.307Z,41.90
2018-03-11T15:20:16.597Z,41.70
2018-03-11T15:22:45.904Z,42.10
2018-03-11T15:25:15.172Z,42.00
2018-03-11T15:27:44.425Z,42.60
2018-03-11T15:30:14.473Z,44.30
2018-03-11T15:32:43.739Z,44.10
2018-03-11T15:35:12.955Z,44.80
2018-03-11T15:37:42.308Z,45.20
2018-03-11T15:40:12.356Z,46.30
2018-03-11T15:42:41.662Z,46.30
2018-03-11T15:45:10.933Z,47.50
2018-03-11T15:47:40.229Z,46.90
2018-03-11T15:50:09.681Z,47.00
2018-03-11T15:52:39.032Z,46.30
2018-03-11T15:55:08.606Z,47.00
2018-03-11T15:57:37.913Z,46.60
2018-03-11T16:00:07.252Z,47.10
2018-03-11T16:02:36.566Z,47.50
2018-03-11T16:05:05.921Z,47.90
2018-03-11T16:07:35.498Z,48.20
2018-03-11T16:10:04.900Z,48.30
2018-03-11T16:12:34.211Z,48.90
2018-03-11T16:15:03.520Z,49.50
2018-03-11T16:17:32.988Z,49.70
2018-03-11T16:20:02.364Z,49.80
2018-03-11T16:22:31.705Z,50.20
2018-03-11T16:25:01.770Z,50.80
2018-03-11T16:27:31.130Z,50.70
2018-03-11T16:30:00.402Z,50.90
2018-03-11T16:32:29.760Z,51.20
2018-03-11T16:34:59.065Z,51.40
2018-03-11T16:37:29.488Z,51.60
2018-03-11T16:39:58.848Z,51.90
2018-03-11T16:42:28.100Z,52.40
2018-03-11T16:44:57.377Z,53.00
2018-03-11T16:47:28.168Z,54.20
2018-03-11T16:49:57.583Z,54.20
2018-03-11T16:52:26.864Z,54.90
2018-03-11T16:54:56.937Z,54.30
2018-03-11T16:57:26.239Z,54.30
2018-03-11T16:59:55.462Z,54.60
2018-03-11T17:02:24.694Z,54.30
2018-03-11T17:04:53.948Z,54.40
2018-03-11T17:07:23.958Z,54.90
2018-03-11T17:09:53.315Z,54.80
2018-03-11T17:12:22.553Z,55.50
2018-03-11T17:14:52.592Z,55.80
2018-03-11T17:17:24.005Z,55.70
2018-03-11T17:19:53.416Z,56.40
2018-03-11T17:22:22.634Z,56.80
2018-03-11T17:24:51.857Z,56.50
2018-03-11T17:27:21.155Z,57.20
2018-03-11T17:29:50.387Z,58.20
2018-03-11T17:32:19.673Z,58.40
2018-03-11T17:34:48.942Z,57.70
2018-03-11T17:37:19.023Z,58.30
2018-03-11T17:39:48.248Z,58.30
2018-03-11T17:42:17.597Z,58.30
2018-03-11T17:44:47.626Z,58.90
2018-03-11T17:47:16.887Z,58.90
2018-03-11T17:49:46.132Z,59.30
2018-03-11T17:52:16.646Z,59.20
2018-03-11T17:54:46.504Z,59.20
2018-03-11T17:57:16.083Z,59.40
2018-03-11T17:59:45.461Z,59.20
2018-03-11T18:02:14.759Z,59.30
2018-03-11T18:04:44.133Z,59.40
2018-03-11T18:07:13.540Z,59.50
2018-03-11T18:09:42.851Z,60.00
2018-03-11T18:12:12.152Z,60.20
2018-03-11T18:14:41.493Z,60.80
2018-03-11T18:17:11.705Z,60.90
2018-03-11T18:19:41.805Z,61.80
2018-03-11T18:22:11.152Z,61.70
2018-03-11T18:24:41.339Z,62.50
2018-03-11T18:27:10.901Z,62.50
2018-03-11T18:29:40.344Z,63.00
2018-03-11T18:32:09.853Z,62.10
2018-03-11T18:34:39.201Z,62.80
2018-03-11T18:37:09.045Z,62.60
2018-03-11T18:39:38.420Z,62.50
2018-03-11T18:45:12.357Z,63.10
2018-03-11T18:47:41.628Z,63.50
2018-03-11T18:50:10.952Z,64.20
2018-03-11T18:52:41.042Z,66.40
2018-03-11T18:55:10.420Z,66.20
2018-03-11T18:57:39.754Z,66.40
2018-03-11T19:00:10.281Z,66.60
2018-03-11T19:02:39.708Z,66.50
2018-03-11T19:05:09.120Z,66.90
2018-03-11T19:07:38.488Z,67.50
2018-03-11T19:10:08.019Z,68.20
2018-03-11T19:12:37.319Z,68.60
2018-03-11T19:15:06.658Z,69.00
2018-03-11T19:17:35.996Z,69.10
2018-03-11T19:20:06.176Z,69.50
2018-03-11T19:22:36.419Z,70.60
2018-03-11T19:25:06.758Z,69.50
2018-03-11T19:27:36.127Z,69.50
2018-03-11T19:30:05.676Z,69.70
2018-03-11T19:32:35.785Z,69.90
2018-03-11T19:35:05.094Z,69.90
2018-03-11T19:37:34.421Z,70.40
2018-03-11T19:40:03.727Z,70.80
2018-03-11T19:42:34.437Z,70.40
2018-03-11T19:45:04.116Z,70.40
2018-03-11T19:47:33.387Z,70.80
2018-03-11T19:50:02.728Z,70.60
2018-03-11T19:52:32.046Z,71.60
2018-03-11T19:55:01.344Z,71.50
2018-03-11T19:57:30.619Z,71.20
2018-03-11T19:59:59.940Z,72.00
2018-03-11T20:02:29.245Z,71.70
2018-03-11T20:04:58.527Z,72.10
2018-03-11T20:07:28.558Z,72.30
2018-03-11T20:09:57.876Z,72.30
2018-03-11T20:12:27.124Z,72.10
2018-03-11T20:14:56.402Z,72.80
2018-03-11T20:17:25.697Z,73.50
2018-03-11T20:19:54.896Z,73.70
2018-03-11T20:22:24.193Z,73.90
2018-03-11T20:24:53.512Z,74.20
2018-03-11T20:27:22.801Z,74.50
2018-03-11T20:29:52.098Z,74.50
2018-03-11T20:32:21.377Z,74.90
2018-03-11T20:34:50.627Z,75.00
2018-03-11T20:37:19.928Z,75.30
2018-03-11T20:39:49.972Z,75.40
2018-03-11T20:42:19.393Z,75.40
2018-03-11T20:44:48.584Z,74.90
2018-03-11T20:47:17.848Z,74.90
2018-03-11T20:49:47.908Z,75.00
2018-03-11T20:52:17.223Z,74.80
2018-03-11T20:54:46.481Z,75.30
2018-03-11T20:57:15.772Z,75.60
2018-03-11T20:59:45.058Z,75.30
2018-03-11T21:02:14.339Z,75.60
2018-03-11T21:04:44.431Z,74.40
2018-03-11T21:07:13.730Z,73.90
2018-03-11T21:09:43.057Z,74.10
2018-03-11T21:12:12.410Z,74.30
2018-03-11T21:14:41.902Z,74.40
2018-03-11T21:17:12.067Z,75.00
2018-03-11T21:19:41.571Z,75.00
2018-03-11T21:22:11.890Z,74.50
2018-03-11T21:24:41.205Z,74.50
2018-03-11T21:27:10.813Z,73.70
2018-03-11T21:29:40.079Z,73.50
2018-03-11T21:32:10.391Z,73.90
2018-03-11T21:34:39.905Z,73.80
2018-03-11T21:37:09.242Z,74.40
2018-03-11T21:39:38.542Z,75.20
2018-03-11T21:42:07.897Z,74.60
2018-03-11T21:44:37.218Z,74.70
2018-03-11T21:47:07.428Z,76.20
2018-03-11T21:49:36.789Z,76.10
2018-03-11T21:52:06.783Z,76.70
2018-03-11T21:54:36.080Z,77.20
2018-03-11T21:57:05.460Z,77.50
2018-03-11T21:59:35.797Z,78.00
2018-03-11T22:02:05.198Z,78.30
2018-03-11T22:04:35.141Z,78.30
2018-03-11T22:07:04.642Z,78.80
2018-03-11T22:09:34.961Z,79.10
2018-03-11T22:12:04.314Z,79.10
2018-03-11T22:14:33.725Z,79.00
2018-03-11T22:17:03.043Z,79.00
2018-03-11T22:19:32.317Z,79.10
2018-03-11T22:22:02.408Z,78.90
2018-03-11T22:24:31.769Z,78.80
2018-03-11T22:27:01.104Z,79.00
2018-03-11T22:29:30.372Z,79.00
2018-03-11T22:32:00.458Z,78.10
2018-03-11T22:34:29.919Z,78.00
2018-03-11T22:36:59.242Z,78.30
2018-03-11T22:39:28.511Z,78.70
2018-03-11T22:41:57.730Z,78.80
2018-03-11T22:44:26.977Z,79.50
2018-03-11T22:46:57.046Z,79.70
2018-03-11T22:49:26.281Z,79.70
2018-03-11T22:51:55.514Z,80.10
2018-03-11T22:54:24.827Z,80.20
2018-03-11T22:56:54.118Z,79.80
2018-03-11T22:59:23.374Z,80.20
2018-03-11T23:01:52.671Z,81.40
2018-03-11T23:04:22.690Z,81.00
2018-03-11T23:06:52.692Z,81.40
2018-03-11T23:09:22.032Z,81.10
2018-03-11T23:11:52.090Z,81.70
2018-03-11T23:14:21.466Z,81.60
2018-03-11T23:16:50.692Z,81.70
2018-03-11T23:19:21.878Z,81.90
2018-03-11T23:21:51.898Z,82.00
2018-03-11T23:24:21.916Z,80.80
2018-03-11T23:26:51.222Z,80.90
2018-03-11T23:29:21.244Z,82.40
2018-03-11T23:31:51.284Z,81.60
2018-03-11T23:34:20.554Z,81.60
2018-03-11T23:36:49.799Z,81.20
2018-03-11T23:39:19.864Z,81.60
2018-03-11T23:41:49.023Z,81.60
2018-03-11T23:44:19.065Z,81.80
2018-03-11T23:46:48.307Z,81.70
2018-03-11T23:49:17.566Z,81.80
2018-03-11T23:51:46.840Z,81.70
2018-03-11T23:54:16.117Z,81.90
2018-03-11T23:56:46.132Z,82.00
2018-03-11T23:59:15.396Z,82.10
